createdAt,value
2022-10-09T00:01:27.719Z,74.00
2022-10-09T00:03:57.143Z,74.00
2022-10-09T00:06:28.645Z,74.00
2022-10-09T00:08:56.365Z,74.00
2022-10-09T00:11:27.099Z,74.00
2022-10-09T00:13:55.876Z,74.00
2022-10-09T00:16:24.345Z,74.00
2022-10-09T00:18:52.384Z,74.00
2022-10-09T00:21:24.997Z,74.00
2022-10-09T00:23:54.770Z,74.20
2022-10-09T00:26:22.593Z,74.20
2022-10-09T00:28:50.357Z,74.20
2022-10-09T00:31:18.641Z,74.20
2022-10-09T00:33:46.392Z,74.10
2022-10-09T00:36:18.048Z,74.10
2022-10-09T00:38:45.350Z,74.10
2022-10-09T00:41:31.072Z,74.00
2022-10-09T00:44:01.597Z,73.90
2022-10-09T00:46:49.194Z,73.90
2022-10-09T00:49:28.414Z,73.90
2022-10-09T00:52:00.834Z,73.90
2022-10-09T00:54:32.498Z,73.80
2022-10-09T00:57:00.144Z,73.90
2022-10-09T00:59:28.122Z,73.90
2022-10-09T01:01:55.382Z,73.90
2022-10-09T01:04:22.675Z,73.80
2022-10-09T01:07:17.019Z,73.80
2022-10-09T01:10:15.670Z,74.00
2022-10-09T01:13:17.107Z,74.00
2022-10-09T01:15:44.207Z,73.90
2022-10-09T01:18:43.931Z,73.80
2022-10-09T01:21:31.622Z,74.00
2022-10-09T01:24:32.883Z,74.20
2022-10-09T01:27:02.857Z,74.00
2022-10-09T01:29:43.037Z,73.80
2022-10-09T01:32:14.692Z,74.00
2022-10-09T01:34:45.630Z,74.00
2022-10-09T01:37:15.394Z,74.00
2022-10-09T01:39:44.644Z,74.00
2022-10-09T01:42:14.653Z,74.10
2022-10-09T01:44:42.741Z,74.10
2022-10-09T01:47:18.628Z,74.10
2022-10-09T01:50:22.910Z,74.20
2022-10-09T01:53:08.514Z,74.30
2022-10-09T01:55:51.398Z,74.10
2022-10-09T01:58:37.837Z,74.10
2022-10-09T02:01:17.927Z,74.20
2022-10-09T02:03:49.667Z,74.00
2022-10-09T02:06:19.261Z,74.00
2022-10-09T02:08:50.283Z,74.00
2022-10-09T02:11:18.095Z,74.00
2022-10-09T02:13:48.669Z,74.00
2022-10-09T02:16:42.202Z,74.00
2022-10-09T02:19:24.469Z,74.20
2022-10-09T02:22:04.709Z,74.00
2022-10-09T02:24:32.608Z,74.00
2022-10-09T02:27:01.031Z,74.00
2022-10-09T02:29:28.381Z,74.00
2022-10-09T02:31:55.641Z,74.00
2022-10-09T02:34:23.088Z,74.00
2022-10-09T02:36:50.195Z,73.90
2022-10-09T02:39:18.028Z,73.90
2022-10-09T02:41:45.203Z,73.90
2022-10-09T02:44:12.468Z,73.80
2022-10-09T02:46:39.720Z,73.80
2022-10-09T02:49:07.906Z,73.70
2022-10-09T02:51:35.186Z,73.60
2022-10-09T02:54:02.559Z,73.60
2022-10-09T02:56:30.343Z,73.60
2022-10-09T02:58:57.895Z,73.70
2022-10-09T03:01:25.318Z,73.80
2022-10-09T03:03:52.724Z,73.90
2022-10-09T03:06:26.297Z,73.80
2022-10-09T03:08:55.021Z,73.80
2022-10-09T03:11:24.418Z,73.80
2022-10-09T03:13:51.814Z,73.70
2022-10-09T03:16:22.226Z,73.70
2022-10-09T03:18:50.954Z,73.70
2022-10-09T03:21:24.273Z,73.80
2022-10-09T03:23:53.509Z,73.80
2022-10-09T03:26:27.311Z,74.00
2022-10-09T03:28:55.903Z,74.00
2022-10-09T03:34:13.180Z,74.00
2022-10-09T03:36:40.620Z,73.80
2022-10-09T03:39:08.057Z,74.00
2022-10-09T03:41:35.142Z,74.10
2022-10-09T03:44:02.348Z,74.30
2022-10-09T03:46:29.488Z,74.30
2022-10-09T03:48:56.653Z,74.30
2022-10-09T03:51:23.859Z,74.20
2022-10-09T03:53:50.947Z,74.20
2022-10-09T03:56:18.067Z,74.10
2022-10-09T03:58:45.337Z,74.00
2022-10-09T04:01:12.413Z,74.00
2022-10-09T04:03:39.614Z,73.90
2022-10-09T04:06:06.936Z,73.90
2022-10-09T04:08:35.702Z,73.90
2022-10-09T04:11:03.645Z,73.90
2022-10-09T04:13:30.993Z,74.10
2022-10-09T04:15:58.333Z,74.20
2022-10-09T04:18:25.817Z,74.20
2022-10-09T04:20:55.624Z,74.30
2022-10-09T04:23:26.452Z,74.40
2022-10-09T04:25:55.699Z,74.30
2022-10-09T04:28:23.706Z,74.20
2022-10-09T04:30:51.213Z,74.20
2022-10-09T04:33:18.763Z,74.10
2022-10-09T04:35:49.495Z,74.20
2022-10-09T04:38:16.850Z,74.30
2022-10-09T04:40:44.142Z,74.40
2022-10-09T04:43:11.300Z,74.50
2022-10-09T04:45:41.937Z,74.70
2022-10-09T04:48:09.165Z,74.90
2022-10-09T04:50:39.713Z,74.90
2022-10-09T04:53:06.897Z,75.10
2022-10-09T04:55:39.086Z,75.20
2022-10-09T04:58:06.666Z,75.30
2022-10-09T05:00:33.968Z,75.30
2022-10-09T05:03:01.081Z,75.40
2022-10-09T05:05:28.182Z,75.40
2022-10-09T05:07:55.286Z,75.40
2022-10-09T05:10:22.378Z,75.40
2022-10-09T05:12:49.840Z,75.40
2022-10-09T05:15:17.523Z,75.50
2022-10-09T05:17:44.587Z,75.40
2022-10-09T05:20:11.971Z,75.50
2022-10-09T05:22:39.051Z,75.50
2022-10-09T05:25:07.424Z,75.50
2022-10-09T05:27:34.452Z,75.60
2022-10-09T05:30:01.810Z,75.60
2022-10-09T05:32:28.979Z,75.60
2022-10-09T05:34:56.160Z,75.50
2022-10-09T05:37:23.268Z,75.60
2022-10-09T05:39:50.276Z,75.60
2022-10-09T05:42:17.469Z,75.70
2022-10-09T05:44:44.621Z,75.80
2022-10-09T05:47:13.709Z,75.70
2022-10-09T05:49:40.925Z,75.70
2022-10-09T05:52:07.923Z,75.90
2022-10-09T05:54:35.077Z,76.10
2022-10-09T05:57:02.468Z,76.30
2022-10-09T05:59:29.516Z,76.50
2022-10-09T06:01:56.917Z,76.60
2022-10-09T06:04:25.370Z,76.80
2022-10-09T06:06:52.747Z,77.00
2022-10-09T06:09:23.409Z,77.10
2022-10-09T06:11:52.542Z,77.30
2022-10-09T06:14:22.307Z,77.50
2022-10-09T06:16:49.871Z,77.70
2022-10-09T06:19:19.487Z,77.90
2022-10-09T06:21:47.252Z,78.00
2022-10-09T06:24:28.149Z,78.10
2022-10-09T06:26:57.153Z,78.40
2022-10-09T06:29:24.648Z,78.40
2022-10-09T06:31:51.796Z,78.50
2022-10-09T06:34:19.130Z,78.50
2022-10-09T06:36:46.182Z,78.50
2022-10-09T06:39:13.339Z,78.30
2022-10-09T06:41:40.643Z,78.20
2022-10-09T06:44:16.075Z,78.20
2022-10-09T06:46:45.931Z,78.10
2022-10-09T06:49:13.155Z,77.90
2022-10-09T06:51:40.316Z,77.90
2022-10-09T06:54:14.311Z,78.00
2022-10-09T06:56:42.109Z,78.10
2022-10-09T06:59:10.879Z,77.90
2022-10-09T07:01:38.226Z,77.90
2022-10-09T07:04:10.119Z,77.90
2022-10-09T07:06:39.917Z,78.10
2022-10-09T07:09:11.272Z,78.70
2022-10-09T07:11:45.233Z,78.00
2022-10-09T07:14:14.261Z,78.10
2022-10-09T07:16:45.582Z,78.00
2022-10-09T07:19:15.946Z,78.00
2022-10-09T07:21:46.856Z,77.90
2022-10-09T07:24:14.648Z,78.10
2022-10-09T07:26:45.617Z,78.30
2022-10-09T07:29:16.564Z,78.50
2022-10-09T07:31:44.274Z,78.40
2022-10-09T07:34:11.928Z,78.40
2022-10-09T07:36:38.947Z,78.30
2022-10-09T07:39:06.358Z,78.00
2022-10-09T07:41:33.898Z,77.60
2022-10-09T07:44:01.106Z,77.20
2022-10-09T07:46:33.322Z,77.00
2022-10-09T07:49:01.986Z,77.00
2022-10-09T07:51:30.834Z,76.90
2022-10-09T07:54:00.241Z,76.90
2022-10-09T07:56:36.051Z,76.80
2022-10-09T07:59:07.819Z,76.80
2022-10-09T08:01:36.532Z,77.20
2022-10-09T08:04:04.664Z,77.60
2022-10-09T08:06:32.767Z,77.60
2022-10-09T08:09:01.938Z,77.20
2022-10-09T08:11:30.227Z,77.10
2022-10-09T08:13:58.126Z,77.00
2022-10-09T08:16:27.233Z,76.80
2022-10-09T08:18:56.801Z,76.60
2022-10-09T08:21:24.120Z,76.60
2022-10-09T08:23:57.555Z,76.50
2022-10-09T08:26:27.805Z,76.10
2022-10-09T08:29:02.166Z,75.90
2022-10-09T08:31:30.181Z,75.70
2022-10-09T08:34:00.046Z,75.60
2022-10-09T08:36:28.175Z,75.50
2022-10-09T08:38:55.809Z,75.70
2022-10-09T08:41:48.037Z,76.00
2022-10-09T08:44:22.766Z,75.30
2022-10-09T08:46:52.678Z,75.20
2022-10-09T08:49:30.480Z,75.50
2022-10-09T08:52:05.661Z,74.90
2022-10-09T08:54:38.604Z,74.80
2022-10-09T08:57:14.439Z,74.40
2022-10-09T08:59:42.200Z,74.20
2022-10-09T09:02:54.242Z,74.30
2022-10-09T09:05:51.293Z,73.10
2022-10-09T09:09:08.922Z,73.60
2022-10-09T09:11:51.637Z,73.00
2022-10-09T09:14:18.646Z,73.60
2022-10-09T09:17:11.980Z,73.50
2022-10-09T09:20:23.965Z,73.30
2022-10-09T09:22:51.834Z,72.60
2022-10-09T09:25:35.017Z,73.20
2022-10-09T09:28:18.653Z,73.10
2022-10-09T09:30:51.446Z,72.40
2022-10-09T09:33:44.393Z,73.00
2022-10-09T09:36:32.277Z,72.80
2022-10-09T09:41:46.505Z,72.20
2022-10-09T09:44:16.729Z,72.20
2022-10-09T09:46:48.306Z,72.20
2022-10-09T09:49:27.262Z,72.00
2022-10-09T09:51:58.723Z,72.00
2022-10-09T09:54:30.846Z,72.10
2022-10-09T09:57:12.330Z,71.80
2022-10-09T09:59:43.997Z,71.80
2022-10-09T10:02:26.968Z,71.60
2022-10-09T10:05:07.086Z,70.40
2022-10-09T10:07:38.878Z,70.50
2022-10-09T10:10:25.845Z,70.80
2022-10-09T10:12:53.216Z,70.50
2022-10-09T10:15:34.621Z,71.10
2022-10-09T10:18:06.074Z,70.40
2022-10-09T10:20:45.587Z,71.10
2022-10-09T10:23:43.300Z,70.40
2022-10-09T10:26:41.736Z,69.80
2022-10-09T10:29:27.691Z,70.10
2022-10-09T10:32:24.882Z,69.70
2022-10-09T10:35:31.032Z,70.10
2022-10-09T10:38:30.115Z,69.20
2022-10-09T10:41:03.103Z,69.70
2022-10-09T10:43:48.385Z,70.70
2022-10-09T10:46:38.561Z,70.60
2022-10-09T10:49:09.713Z,70.10
2022-10-09T10:51:57.671Z,70.70
2022-10-09T10:55:34.949Z,69.50
2022-10-09T10:58:45.831Z,68.60
2022-10-09T11:01:25.804Z,69.20
2022-10-09T11:04:22.893Z,69.80
2022-10-09T11:07:00.975Z,68.60
2022-10-09T11:09:33.281Z,69.20
2022-10-09T11:12:47.443Z,69.20
2022-10-09T11:15:37.761Z,68.70
2022-10-09T11:18:32.553Z,68.80
2022-10-09T11:21:19.449Z,69.10
2022-10-09T11:24:04.468Z,68.30
2022-10-09T11:26:52.983Z,68.70
2022-10-09T11:29:47.003Z,67.40
2022-10-09T11:32:47.797Z,67.60
2022-10-09T11:35:43.128Z,66.50
2022-10-09T11:38:27.083Z,66.70
2022-10-09T11:40:56.021Z,66.90
2022-10-09T11:43:26.045Z,67.80
2022-10-09T11:46:24.120Z,67.70
2022-10-09T11:49:29.108Z,66.90
2022-10-09T11:53:02.467Z,67.20
2022-10-09T11:55:33.282Z,66.20
2022-10-09T11:58:14.949Z,67.40
2022-10-09T12:00:42.939Z,66.60
2022-10-09T12:03:33.374Z,67.40
2022-10-09T12:06:16.832Z,66.10
2022-10-09T12:08:53.879Z,66.90
2022-10-09T12:11:22.195Z,67.00
2022-10-09T12:14:02.438Z,66.90
2022-10-09T12:16:46.453Z,65.80
2022-10-09T12:19:28.925Z,65.50
2022-10-09T12:22:02.969Z,65.50
2022-10-09T12:24:46.294Z,66.30
2022-10-09T12:27:23.975Z,65.80
2022-10-09T12:30:20.679Z,65.90
2022-10-09T12:33:02.441Z,65.30
2022-10-09T12:35:39.407Z,65.80
2022-10-09T12:38:26.344Z,65.00
2022-10-09T12:40:56.353Z,64.10
2022-10-09T12:43:24.336Z,65.40
2022-10-09T12:45:53.322Z,65.30
2022-10-09T12:48:25.895Z,65.20
2022-10-09T12:50:54.282Z,64.80
2022-10-09T12:53:27.037Z,64.90
2022-10-09T12:56:00.665Z,64.40
2022-10-09T12:58:36.097Z,64.70
2022-10-09T13:01:10.995Z,64.40
2022-10-09T13:04:06.131Z,64.40
2022-10-09T13:06:44.840Z,64.50
2022-10-09T13:09:40.044Z,64.40
2022-10-09T13:12:24.863Z,62.60
2022-10-09T13:15:37.111Z,64.00
2022-10-09T13:18:23.599Z,63.70
2022-10-09T13:21:05.454Z,63.50
2022-10-09T13:23:36.550Z,63.90
2022-10-09T13:26:06.106Z,64.60
2022-10-09T13:28:33.496Z,64.90
2022-10-09T13:31:08.509Z,64.80
2022-10-09T13:33:35.699Z,63.80
2022-10-09T13:36:02.825Z,64.40
2022-10-09T13:38:34.652Z,64.30
2022-10-09T13:41:02.133Z,64.30
2022-10-09T13:43:31.157Z,64.40
2022-10-09T13:45:58.901Z,64.40
2022-10-09T13:48:26.216Z,64.50
2022-10-09T13:50:53.249Z,64.50
2022-10-09T13:53:20.503Z,64.60
2022-10-09T13:55:47.764Z,64.60
2022-10-09T13:58:14.919Z,64.60
2022-10-09T14:00:45.529Z,64.70
2022-10-09T14:03:12.829Z,64.40
2022-10-09T14:05:40.960Z,64.60
2022-10-09T14:08:08.512Z,64.60
2022-10-09T14:10:35.739Z,64.50
2022-10-09T14:13:02.929Z,64.50
2022-10-09T14:15:29.954Z,64.40
2022-10-09T14:17:57.142Z,64.30
2022-10-09T14:20:25.283Z,64.00
2022-10-09T14:22:52.503Z,64.00
2022-10-09T14:25:19.632Z,63.90
2022-10-09T14:27:46.753Z,63.90
2022-10-09T14:30:14.439Z,64.00
2022-10-09T14:32:41.538Z,64.00
2022-10-09T14:35:09.263Z,64.20
2022-10-09T14:37:41.704Z,63.90
2022-10-09T14:40:11.156Z,63.70
2022-10-09T14:42:39.422Z,63.60
2022-10-09T14:45:08.267Z,63.30
2022-10-09T14:47:35.530Z,62.90
2022-10-09T14:50:02.660Z,63.00
2022-10-09T14:52:30.442Z,62.70
2022-10-09T14:54:57.538Z,62.50
2022-10-09T14:57:24.703Z,62.40
2022-10-09T14:59:51.920Z,62.10
2022-10-09T15:02:20.010Z,61.90
2022-10-09T15:04:47.223Z,61.80
2022-10-09T15:07:14.304Z,61.70
2022-10-09T15:09:41.434Z,61.50
2022-10-09T15:12:08.502Z,61.20
2022-10-09T15:14:35.653Z,60.90
2022-10-09T15:17:02.878Z,60.60
2022-10-09T15:19:30.052Z,60.30
2022-10-09T15:21:57.068Z,60.10
2022-10-09T15:24:24.136Z,60.00
2022-10-09T15:26:51.143Z,59.90
2022-10-09T15:29:18.267Z,59.80
2022-10-09T15:31:45.309Z,59.70
2022-10-09T15:34:18.511Z,59.50
2022-10-09T15:36:46.469Z,58.90
2022-10-09T15:39:14.888Z,59.10
2022-10-09T15:41:43.906Z,59.00
2022-10-09T15:44:18.349Z,59.00
2022-10-09T15:46:47.481Z,58.80
2022-10-09T15:49:14.680Z,59.20
2022-10-09T15:51:42.106Z,59.30
2022-10-09T15:54:10.992Z,59.40
2022-10-09T15:56:40.143Z,59.40
2022-10-09T15:59:11.697Z,59.30
2022-10-09T16:01:39.018Z,59.40
2022-10-09T16:04:06.208Z,59.50
2022-10-09T16:06:33.221Z,59.50
2022-10-09T16:09:01.154Z,59.60
2022-10-09T16:11:28.341Z,59.60
2022-10-09T16:13:56.434Z,59.70
2022-10-09T16:16:26.302Z,59.80
2022-10-09T16:18:55.354Z,59.90
2022-10-09T16:21:26.701Z,60.00
2022-10-09T16:23:58.485Z,60.10
2022-10-09T16:26:29.096Z,60.20
2022-10-09T16:28:56.564Z,60.20
2022-10-09T16:31:31.209Z,60.40
2022-10-09T16:33:58.718Z,60.40
2022-10-09T16:36:26.011Z,60.50
2022-10-09T16:38:53.331Z,60.60
2022-10-09T16:41:22.736Z,60.70
2022-10-09T16:43:53.639Z,60.80
2022-10-09T16:49:05.337Z,61.00
2022-10-09T16:51:35.811Z,61.20
2022-10-09T16:54:06.299Z,61.30
2022-10-09T16:56:37.580Z,61.40
2022-10-09T16:59:09.029Z,61.50
2022-10-09T17:01:37.953Z,61.60
2022-10-09T17:04:05.861Z,61.70
2022-10-09T17:06:33.097Z,61.80
2022-10-09T17:09:00.950Z,61.90
2022-10-09T17:11:30.629Z,62.00
2022-10-09T17:13:58.691Z,62.10
2022-10-09T17:16:31.300Z,62.10
2022-10-09T17:18:58.722Z,62.20
2022-10-09T17:21:29.734Z,62.20
2022-10-09T17:24:02.520Z,62.30
2022-10-09T17:26:30.467Z,62.40
2022-10-09T17:28:59.423Z,62.60
2022-10-09T17:31:28.125Z,62.60
2022-10-09T17:34:03.076Z,62.60
2022-10-09T17:36:34.920Z,62.70
2022-10-09T17:39:02.417Z,62.70
2022-10-09T17:41:29.821Z,62.80
2022-10-09T17:43:58.224Z,62.80
2022-10-09T17:46:27.699Z,62.90
2022-10-09T17:48:56.859Z,63.00
2022-10-09T17:51:34.805Z,63.00
2022-10-09T17:54:08.225Z,63.00
2022-10-09T17:56:39.169Z,63.10
2022-10-09T17:59:06.743Z,63.20
2022-10-09T18:01:34.284Z,63.30
2022-10-09T18:04:01.791Z,63.30
2022-10-09T18:06:33.219Z,63.30
2022-10-09T18:09:01.006Z,63.40
2022-10-09T18:11:28.907Z,63.40
2022-10-09T18:13:56.462Z,63.40
2022-10-09T18:16:36.129Z,63.40
2022-10-09T18:19:16.060Z,63.50
2022-10-09T18:21:48.930Z,63.50
2022-10-09T18:24:16.360Z,63.50
2022-10-09T18:26:44.608Z,63.50
2022-10-09T18:29:11.758Z,63.50
2022-10-09T18:31:39.061Z,63.60
2022-10-09T18:34:06.287Z,63.60
2022-10-09T18:36:34.187Z,63.70
2022-10-09T18:39:13.260Z,63.70
2022-10-09T18:41:41.029Z,63.70
2022-10-09T18:44:17.331Z,63.90
2022-10-09T18:46:54.632Z,63.90
2022-10-09T18:49:25.954Z,64.00
2022-10-09T18:51:53.372Z,64.00
2022-10-09T18:54:24.641Z,64.00
2022-10-09T18:56:53.184Z,64.00
2022-10-09T18:59:22.304Z,64.00
2022-10-09T19:01:49.646Z,64.10
2022-10-09T19:04:16.845Z,64.10
2022-10-09T19:06:44.109Z,64.20
2022-10-09T19:09:11.393Z,64.20
2022-10-09T19:11:38.449Z,64.30
2022-10-09T19:14:05.816Z,64.30
2022-10-09T19:16:34.667Z,64.40
2022-10-09T19:19:02.074Z,64.50
2022-10-09T19:21:29.194Z,64.50
2022-10-09T19:23:56.503Z,64.60
2022-10-09T19:26:24.051Z,64.60
2022-10-09T19:28:51.968Z,64.70
2022-10-09T19:31:19.153Z,64.70
2022-10-09T19:33:46.479Z,64.90
2022-10-09T19:36:14.812Z,64.90
2022-10-09T19:38:42.674Z,64.90
2022-10-09T19:41:14.111Z,64.90
2022-10-09T19:43:42.046Z,65.00
2022-10-09T19:46:14.460Z,65.00
2022-10-09T19:48:41.793Z,65.10
2022-10-09T19:51:13.116Z,65.10
2022-10-09T19:53:40.951Z,65.10
2022-10-09T19:56:17.115Z,65.10
2022-10-09T19:58:46.443Z,65.20
2022-10-09T20:01:17.790Z,65.20
2022-10-09T20:03:45.937Z,65.20
2022-10-09T20:06:13.395Z,65.20
2022-10-09T20:08:42.671Z,65.30
2022-10-09T20:11:12.406Z,65.30
2022-10-09T20:13:41.901Z,65.30
2022-10-09T20:16:13.103Z,65.40
2022-10-09T20:18:42.424Z,65.40
2022-10-09T20:21:12.195Z,65.40
2022-10-09T20:23:39.667Z,65.40
2022-10-09T20:26:12.051Z,65.40
2022-10-09T20:28:39.573Z,65.50
2022-10-09T20:31:10.613Z,65.50
2022-10-09T20:33:39.074Z,65.50
2022-10-09T20:36:07.312Z,65.50
2022-10-09T20:38:35.426Z,65.60
2022-10-09T20:41:08.673Z,65.60
2022-10-09T20:43:36.595Z,65.70
2022-10-09T20:46:14.339Z,65.60
2022-10-09T20:48:43.084Z,65.80
2022-10-09T20:51:10.402Z,65.80
2022-10-09T20:53:37.591Z,65.90
2022-10-09T20:56:08.543Z,65.90
2022-10-09T20:58:36.141Z,65.90
2022-10-09T21:01:11.350Z,66.00
2022-10-09T21:03:39.406Z,66.20
2022-10-09T21:06:10.460Z,66.10
2022-10-09T21:08:37.932Z,66.10
2022-10-09T21:11:08.500Z,66.10
2022-10-09T21:13:37.104Z,66.20
2022-10-09T21:16:11.028Z,66.20
2022-10-09T21:18:39.422Z,66.30
2022-10-09T21:21:12.281Z,66.30
2022-10-09T21:23:40.388Z,66.40
2022-10-09T21:26:16.394Z,66.50
2022-10-09T21:28:44.491Z,66.60
2022-10-09T21:31:16.444Z,66.60
2022-10-09T21:33:43.625Z,66.70
2022-10-09T21:36:24.043Z,66.80
2022-10-09T21:38:51.327Z,66.50
2022-10-09T21:41:18.527Z,66.50
2022-10-09T21:43:45.700Z,66.60
2022-10-09T21:46:12.703Z,66.70
2022-10-09T21:48:39.843Z,66.80
2022-10-09T21:51:06.844Z,66.80
2022-10-09T21:53:34.225Z,66.80
2022-10-09T21:56:04.564Z,66.80
2022-10-09T21:58:31.847Z,66.80
2022-10-09T22:01:03.687Z,66.80
2022-10-09T22:03:32.995Z,66.90
2022-10-09T22:06:00.603Z,67.10
2022-10-09T22:08:28.212Z,66.60
2022-10-09T22:10:55.240Z,66.80
2022-10-09T22:13:22.460Z,66.90
2022-10-09T22:15:51.285Z,66.90
2022-10-09T22:18:18.888Z,66.90
2022-10-09T22:20:49.293Z,66.90
2022-10-09T22:23:19.064Z,67.00
2022-10-09T22:26:01.139Z,67.00
2022-10-09T22:28:28.172Z,67.20
2022-10-09T22:31:02.594Z,67.30
2022-10-09T22:33:30.053Z,67.00
2022-10-09T22:36:31.611Z,66.90
2022-10-09T22:39:01.812Z,67.50
2022-10-09T22:41:30.378Z,67.00
2022-10-09T22:43:59.925Z,67.10
2022-10-09T22:46:29.721Z,67.30
2022-10-09T22:48:57.568Z,67.30
2022-10-09T22:51:27.346Z,67.30
2022-10-09T22:53:56.985Z,67.40
2022-10-09T22:56:28.107Z,67.30
2022-10-09T22:58:55.363Z,67.30
2022-10-09T23:01:38.573Z,67.30
2022-10-09T23:04:13.167Z,67.40
2022-10-09T23:06:41.432Z,67.40
2022-10-09T23:09:12.176Z,67.40
2022-10-09T23:11:39.338Z,67.50
2022-10-09T23:14:06.524Z,67.50
2022-10-09T23:16:34.404Z,67.60
2022-10-09T23:19:06.724Z,67.60
2022-10-09T23:21:37.709Z,67.70
2022-10-09T23:24:07.366Z,67.80
2022-10-09T23:26:36.322Z,67.90
2022-10-09T23:29:09.902Z,67.90
2022-10-09T23:31:37.330Z,68.10
2022-10-09T23:34:06.039Z,68.10
2022-10-09T23:36:33.781Z,68.20
2022-10-09T23:39:03.137Z,68.20
2022-10-09T23:41:30.638Z,68.20
2022-10-09T23:43:58.187Z,68.20
2022-10-09T23:46:28.658Z,68.20
2022-10-09T23:48:56.531Z,68.20
2022-10-09T23:51:25.353Z,68.20
2022-10-09T23:53:52.850Z,68.30
2022-10-09T23:56:25.676Z,68.30
2022-10-09T23:58:54.266Z,68.40
